Time;durP1;ratioP1;P1;durP2;ratioP2;P2;SDS_P1;SDS_P2;PMS_P1;PMS_P2;Temp;Humidity;BMP_temperature;BMP_pressure;BME280_temperature;BME280_humidity;BME280_pressure;Samples;Min_cycle;Max_cycle;Signal;HPM_P1;HPM_P2
2021/05/21 00:00:00;;;;;;;1.08;0.60;;;;;;;13.59;42.20;100472.84;7971004;28;20040;-67
2021/05/21 00:04:00;;;;;;;1.77;0.73;;;;;;;13.59;42.17;100462.28;7973166;28;21736;-67
2021/05/21 00:07:51;;;;;;;1.48;0.60;;;;;;;13.58;41.74;100451.84;7981652;28;20378;-67
2021/05/21 00:11:42;;;;;;;2.47;0.80;;;;;;;13.56;42.05;100440.56;7980854;28;20045;-68
2021/05/21 00:15:32;;;;;;;1.48;0.60;;;;;;;13.52;42.13;100445.28;7985196;28;20108;-67
2021/05/21 00:19:23;;;;;;;0.47;0.43;;;;;;;13.55;42.31;100442.41;7971228;28;20056;-68
2021/05/21 00:23:16;;;;;;;0.95;0.70;;;;;;;13.54;42.40;100438.09;7975513;28;20101;-67
2021/05/21 00:27:06;;;;;;;1.77;0.60;;;;;;;13.55;42.53;100433.66;7978342;28;20126;-68
2021/05/21 00:30:57;;;;;;;0.50;0.50;;;;;;;13.55;42.56;100426.56;7976535;28;20447;-67
2021/05/21 00:34:48;;;;;;;1.40;0.60;;;;;;;13.54;42.48;100427.53;7976369;28;20033;-68
2021/05/21 00:38:38;;;;;;;2.95;0.90;;;;;;;13.48;42.62;100421.91;7976648;28;20112;-67
2021/05/21 00:42:29;;;;;;;0.85;0.43;;;;;;;13.50;42.69;100414.69;7973889;28;20055;-68
2021/05/21 00:46:20;;;;;;;1.75;0.70;;;;;;;13.49;42.71;100400.66;7978315;28;20526;-67
2021/05/21 00:50:10;;;;;;;1.85;0.90;;;;;;;13.44;42.77;100392.31;7981928;28;20036;-67
2021/05/21 00:54:02;;;;;;;0.65;0.65;;;;;;;13.47;42.67;100384.13;7979658;28;20494;-67
2021/05/21 00:57:53;;;;;;;0.80;0.73;;;;;;;13.46;42.77;100387.75;7978185;28;20069;-68
2021/05/21 01:01:45;;;;;;;2.45;0.60;;;;;;;13.47;42.78;100376.19;7976810;28;20041;-68
2021/05/21 01:05:35;;;;;;;4.90;1.00;;;;;;;13.45;42.66;100371.06;7976763;28;20487;-67
2021/05/21 01:09:26;;;;;;;1.90;0.80;;;;;;;13.43;42.59;100351.03;7975730;28;20086;-68
2021/05/21 01:13:17;;;;;;;1.10;0.50;;;;;;;13.43;42.72;100362.44;7973001;28;20171;-68
2021/05/21 01:17:07;;;;;;;2.55;0.73;;;;;;;13.42;43.00;100358.16;7974869;28;20045;-67
2021/05/21 01:20:58;;;;;;;1.38;0.98;;;;;;;13.37;42.67;100344.50;7977189;28;20398;-67
2021/05/21 01:24:49;;;;;;;1.10;0.70;;;;;;;13.39;42.83;100339.91;7971330;28;20650;-67
2021/05/21 01:28:40;;;;;;;1.52;0.70;;;;;;;13.36;42.97;100332.28;7979946;28;20052;-67
2021/05/21 01:32:31;;;;;;;4.95;0.63;;;;;;;13.32;42.72;100309.78;7977538;28;20044;-67
2021/05/21 01:36:21;;;;;;;2.25;0.82;;;;;;;13.40;43.04;100323.13;7978894;28;20029;-68
2021/05/21 01:40:14;;;;;;;1.50;0.68;;;;;;;13.39;43.16;100321.44;7985684;28;20040;-67
2021/05/21 01:44:06;;;;;;;1.55;0.77;;;;;;;13.38;43.03;100309.25;7975994;28;20453;-68
2021/05/21 01:47:57;;;;;;;0.50;0.50;;;;;;;13.37;42.87;100302.31;7977435;28;20099;-67
2021/05/21 01:51:59;;;;;;;4.65;0.90;;;;;;;13.35;42.95;100295.47;7973456;28;20068;-67
2021/05/21 01:55:50;;;;;;;7.35;0.70;;;;;;;13.31;43.16;100296.72;7974206;28;20039;-67
2021/05/21 01:59:41;;;;;;;2.63;0.88;;;;;;;13.32;43.15;100293.94;7973123;28;20033;-67
2021/05/21 02:03:32;;;;;;;3.38;0.90;;;;;;;13.30;43.21;100285.31;7963327;28;20034;-67
2021/05/21 02:07:22;;;;;;;1.30;0.77;;;;;;;13.29;42.97;100282.81;7979375;28;20051;-67
2021/05/21 02:11:13;;;;;;;1.60;0.50;;;;;;;13.25;43.11;100279.63;7978528;28;20029;-67
2021/05/21 02:15:06;;;;;;;2.25;0.73;;;;;;;13.25;43.26;100281.44;7978107;28;20117;-67
2021/05/21 02:18:57;;;;;;;3.83;0.70;;;;;;;13.20;43.28;100273.91;7990199;28;20737;-67
2021/05/21 02:22:48;;;;;;;7.07;0.80;;;;;;;13.14;43.30;100263.06;7976238;28;20047;-67
2021/05/21 02:26:38;;;;;;;12.18;0.98;;;;;;;13.07;43.16;100265.38;7975200;28;20650;-67
2021/05/21 02:30:29;;;;;;;1.63;0.60;;;;;;;13.02;43.30;100253.53;7971907;28;20056;-67
2021/05/21 02:34:19;;;;;;;0.80;0.55;;;;;;;12.93;43.33;100263.91;7972268;28;20041;-68
2021/05/21 02:38:10;;;;;;;0.80;0.60;;;;;;;12.87;43.14;100261.81;7972997;28;20036;-68
2021/05/21 02:42:01;;;;;;;3.70;0.70;;;;;;;12.77;43.38;100245.09;7971435;28;20030;-67
2021/05/21 02:45:52;;;;;;;3.67;0.70;;;;;;;12.75;43.39;100254.13;7969319;28;20041;-68
2021/05/21 02:49:42;;;;;;;2.80;0.50;;;;;;;12.69;43.49;100244.06;7978961;28;20041;-67
2021/05/21 02:53:34;;;;;;;0.82;0.60;;;;;;;12.63;43.47;100237.53;7976478;28;20037;-67
2021/05/21 02:57:25;;;;;;;2.55;0.60;;;;;;;12.59;43.61;100241.41;7971596;28;20129;-68
2021/05/21 03:01:16;;;;;;;1.30;0.60;;;;;;;12.53;43.71;100237.44;7975687;28;20123;-67
2021/05/21 03:05:07;;;;;;;5.25;0.85;;;;;;;12.49;43.64;100224.66;7970786;28;20810;-67
2021/05/21 03:08:58;;;;;;;0.93;0.57;;;;;;;12.43;43.64;100223.34;7971005;28;20037;-67
2021/05/21 03:12:49;;;;;;;3.28;0.70;;;;;;;12.36;43.86;100214.31;7974276;28;20053;-68
2021/05/21 03:16:39;;;;;;;0.60;0.40;;;;;;;12.37;43.87;100209.88;7972805;28;20050;-67
2021/05/21 03:20:30;;;;;;;1.50;0.73;;;;;;;12.33;43.87;100198.78;7978705;28;20025;-67
2021/05/21 03:24:21;;;;;;;2.88;0.80;;;;;;;12.29;44.03;100201.78;7975730;28;20041;-67
2021/05/21 03:28:12;;;;;;;1.75;0.88;;;;;;;12.25;43.85;100200.38;7976441;28;20044;-67
2021/05/21 03:32:03;;;;;;;0.90;0.60;;;;;;;12.22;43.82;100195.38;7976841;28;20046;-67
2021/05/21 03:35:53;;;;;;;0.45;0.45;;;;;;;12.17;43.95;100187.00;7986722;28;20042;-67
2021/05/21 03:39:44;;;;;;;1.05;0.60;;;;;;;12.10;44.11;100177.97;7975568;28;20036;-67
2021/05/21 03:43:34;;;;;;;2.17;0.60;;;;;;;12.10;44.03;100180.59;7986215;28;20035;-68
2021/05/21 03:47:26;;;;;;;1.90;0.60;;;;;;;12.08;44.24;100178.91;7989750;28;20047;-68
2021/05/21 03:51:17;;;;;;;1.58;0.70;;;;;;;12.02;44.14;100170.69;7991505;28;20033;-67
2021/05/21 03:55:10;;;;;;;1.55;0.70;;;;;;;12.01;44.42;100164.59;7975496;28;20051;-67
2021/05/21 03:59:01;;;;;;;1.08;0.60;;;;;;;12.03;44.41;100162.66;7980157;28;20131;-67
2021/05/21 04:02:53;;;;;;;1.05;0.50;;;;;;;12.05;44.46;100166.03;7976542;28;20446;-68
2021/05/21 04:06:43;;;;;;;0.95;0.57;;;;;;;12.05;44.38;100163.38;7977892;28;20037;-67
2021/05/21 04:10:35;;;;;;;2.08;0.85;;;;;;;12.05;44.59;100163.38;7974081;28;20041;-67
2021/05/21 04:14:26;;;;;;;0.70;0.70;;;;;;;12.03;44.44;100160.03;7974207;28;20029;-67
2021/05/21 04:18:17;;;;;;;2.00;0.82;;;;;;;12.03;44.33;100154.78;7974491;28;20047;-67
2021/05/21 04:22:07;;;;;;;3.15;0.77;;;;;;;12.03;44.68;100146.88;7980989;28;20128;-68
2021/05/21 04:26:00;;;;;;;1.15;0.77;;;;;;;12.07;44.67;100143.03;7974519;28;20504;-67
2021/05/21 04:29:50;;;;;;;1.25;0.75;;;;;;;12.08;44.73;100142.06;7979110;28;20033;-67
2021/05/21 04:33:41;;;;;;;2.30;0.82;;;;;;;12.18;44.74;100141.28;7977141;28;20056;-67
2021/05/21 04:37:32;;;;;;;0.63;0.63;;;;;;;12.25;44.76;100130.13;7974473;28;20095;-68
2021/05/21 04:41:23;;;;;;;1.85;0.70;;;;;;;12.35;44.66;100138.88;7973233;28;20112;-67
2021/05/21 04:45:14;;;;;;;3.83;1.15;;;;;;;12.52;44.87;100140.09;7972904;28;20032;-67
2021/05/21 04:49:05;;;;;;;0.98;0.50;;;;;;;12.74;44.82;100142.59;7980417;28;20049;-67
2021/05/21 04:52:55;;;;;;;4.95;1.35;;;;;;;13.06;44.63;100136.28;7973870;28;20053;-66
2021/05/21 04:56:46;;;;;;;1.60;0.60;;;;;;;13.33;45.06;100139.16;7982072;28;20050;-67
2021/05/21 05:00:37;;;;;;;1.27;0.73;;;;;;;13.63;45.12;100125.88;7980185;28;20043;-68
2021/05/21 05:04:27;;;;;;;0.90;0.70;;;;;;;14.03;45.03;100125.72;7973207;28;20405;-67
2021/05/21 05:08:18;;;;;;;0.93;0.63;;;;;;;14.56;45.25;100133.94;7975785;28;20107;-68
2021/05/21 05:12:09;;;;;;;2.38;1.05;;;;;;;15.00;44.87;100120.97;7975598;28;20067;-68
2021/05/21 05:15:59;;;;;;;1.05;0.73;;;;;;;15.08;44.63;100119.25;7975907;28;20623;-68
2021/05/21 05:19:50;;;;;;;1.88;0.98;;;;;;;15.05;44.36;100121.31;7985474;28;20039;-68
2021/05/21 05:23:42;;;;;;;4.93;0.70;;;;;;;14.95;44.24;100120.56;7974761;28;20025;-68
2021/05/21 05:27:34;;;;;;;0.77;0.65;;;;;;;14.85;44.07;100114.47;7974250;28;20530;-68
2021/05/21 05:31:25;;;;;;;2.42;0.75;;;;;;;14.70;44.10;100107.06;7972106;28;20041;-68
2021/05/21 05:35:16;;;;;;;1.17;1.08;;;;;;;14.57;44.05;100103.91;7977280;28;20047;-68
2021/05/21 05:39:07;;;;;;;2.00;0.73;;;;;;;14.42;43.84;100104.50;7978023;28;20696;-68
2021/05/21 05:42:58;;;;;;;2.30;0.80;;;;;;;14.27;44.13;100110.22;7977052;28;20124;-68
2021/05/21 05:46:48;;;;;;;4.63;1.27;;;;;;;14.15;44.10;100111.38;7977077;28;20490;-68
2021/05/21 05:50:39;;;;;;;3.20;0.80;;;;;;;14.03;44.20;100104.59;7976781;28;20098;-68
2021/05/21 05:54:29;;;;;;;1.58;0.93;;;;;;;13.92;43.98;100098.63;7976255;28;20036;-68
2021/05/21 05:58:20;;;;;;;0.82;0.70;;;;;;;13.88;44.27;100095.44;7975477;28;20035;-68
2021/05/21 06:02:11;;;;;;;2.85;1.02;;;;;;;13.81;44.42;100087.25;7973666;28;20741;-68
2021/05/21 06:06:02;;;;;;;2.53;0.93;;;;;;;13.79;44.21;100078.66;7973657;28;20034;-68
2021/05/21 06:09:52;;;;;;;7.00;1.30;;;;;;;13.79;44.48;100091.00;7973249;28;20115;-68
2021/05/21 06:13:43;;;;;;;2.17;0.90;;;;;;;13.74;44.44;100088.78;7961610;28;20038;-68
2021/05/21 06:17:34;;;;;;;1.67;0.88;;;;;;;13.73;44.25;100081.00;7977472;28;20140;-68
2021/05/21 06:21:25;;;;;;;1.70;1.13;;;;;;;13.77;44.47;100077.94;7979669;28;20401;-68
2021/05/21 06:25:19;;;;;;;1.42;0.80;;;;;;;13.81;44.46;100078.47;7971244;28;20037;-68
2021/05/21 06:29:09;;;;;;;3.25;0.82;;;;;;;13.81;44.40;100079.31;7976727;28;20033;-68
2021/05/21 06:33:00;;;;;;;2.78;0.70;;;;;;;13.76;44.36;100070.16;7979978;28;20036;-68
2021/05/21 06:36:51;;;;;;;4.13;1.30;;;;;;;13.92;44.64;100077.50;7974714;28;20045;-68
2021/05/21 06:40:41;;;;;;;6.38;0.85;;;;;;;14.23;44.39;100079.78;7970625;28;20033;-68
2021/05/21 06:44:32;;;;;;;3.05;1.10;;;;;;;14.88;44.51;100079.81;7971584;28;20108;-68
2021/05/21 06:48:29;;;;;;;3.03;1.05;;;;;;;15.37;44.19;100082.03;7977833;28;20044;-68
2021/05/21 06:52:20;;;;;;;2.63;1.10;;;;;;;16.06;43.87;100083.91;7969987;28;20588;-68
2021/05/21 06:56:12;;;;;;;1.70;0.93;;;;;;;16.24;43.53;100078.59;7984375;28;20145;-68
2021/05/21 07:00:03;;;;;;;5.05;1.30;;;;;;;16.20;43.16;100078.06;7986679;28;20030;-68
2021/05/21 07:03:56;;;;;;;4.18;1.45;;;;;;;16.23;42.94;100088.34;7983501;28;20058;-68
2021/05/21 07:07:47;;;;;;;5.65;1.58;;;;;;;16.39;42.67;100082.31;7982684;28;20456;-68
2021/05/21 07:11:37;;;;;;;6.97;1.55;;;;;;;16.67;42.42;100075.81;7981452;28;20489;-67
2021/05/21 07:15:28;;;;;;;7.72;1.63;;;;;;;17.02;42.37;100078.31;7979327;28;20044;-67
2021/05/21 07:19:19;;;;;;;9.40;1.83;;;;;;;18.29;41.82;100071.50;7981519;28;20709;-67
2021/05/21 07:23:09;;;;;;;2.40;1.13;;;;;;;19.46;41.16;100076.81;7981299;28;20041;-68
2021/05/21 07:27:00;;;;;;;6.00;1.88;;;;;;;20.22;40.34;100078.47;7978853;28;20034;-68
2021/05/21 07:30:51;;;;;;;4.32;1.15;;;;;;;19.97;39.90;100077.09;7976861;28;20069;-68
2021/05/21 07:34:42;;;;;;;3.65;1.20;;;;;;;19.66;39.31;100069.97;7974499;28;20041;-68
2021/05/21 07:38:41;;;;;;;7.47;1.60;;;;;;;19.64;39.00;100068.53;7976170;28;20041;-68
2021/05/21 07:42:36;;;;;;;5.55;1.80;;;;;;;19.62;38.44;100075.84;7976203;28;20030;-68
2021/05/21 07:46:28;;;;;;;7.05;1.52;;;;;;;19.12;38.49;100073.66;7982170;28;20120;-69
2021/05/21 07:50:18;;;;;;;6.55;1.67;;;;;;;18.62;38.63;100074.91;7987458;28;20059;-68
2021/05/21 07:54:09;;;;;;;9.02;2.10;;;;;;;18.47;38.55;100073.16;7982346;28;20063;-68
2021/05/21 07:57:59;;;;;;;5.13;1.98;;;;;;;19.43;38.14;100081.66;7977757;28;20112;-68
2021/05/21 08:01:50;;;;;;;3.78;1.73;;;;;;;20.58;37.43;100082.13;7977464;28;20041;-68
2021/05/21 08:05:41;;;;;;;4.03;1.60;;;;;;;20.50;36.82;100078.69;7976085;28;20025;-69
2021/05/21 08:09:36;;;;;;;12.98;2.30;;;;;;;20.71;36.49;100087.63;7957110;28;20032;-68
2021/05/21 08:13:27;;;;;;;6.85;2.40;;;;;;;21.49;35.89;100068.19;7977575;28;20148;-68
2021/05/21 08:17:18;;;;;;;6.15;1.70;;;;;;;22.68;35.25;100058.34;7978141;28;20072;-68
2021/05/21 08:21:09;;;;;;;8.32;2.08;;;;;;;24.14;34.43;100063.75;7976020;28;20144;-73
2021/05/21 08:25:04;;;;;;;7.50;2.00;;;;;;;25.39;33.54;100063.28;7977649;28;20047;-69
2021/05/21 08:28:57;;;;;;;8.77;1.85;;;;;;;26.33;32.47;100053.19;7979138;28;20764;-68
2021/05/21 08:32:49;;;;;;;3.95;1.20;;;;;;;26.43;31.82;100056.16;7973101;28;20410;-68
2021/05/21 08:36:40;;;;;;;3.72;1.23;;;;;;;26.34;31.79;100054.00;7979215;28;20098;-68
2021/05/21 08:40:36;;;;;;;4.82;1.88;;;;;;;25.53;31.88;100057.59;7977712;28;20033;-69
2021/05/21 08:44:30;;;;;;;5.32;1.73;;;;;;;25.11;32.14;100056.41;7977026;28;20041;-68
2021/05/21 08:48:21;;;;;;;7.10;2.08;;;;;;;24.96;32.37;100069.31;7978083;28;20045;-69
2021/05/21 08:52:11;;;;;;;4.03;1.55;;;;;;;24.76;32.25;100068.56;7975103;28;20452;-69
2021/05/21 08:56:03;;;;;;;4.85;1.30;;;;;;;24.44;32.27;100070.34;7972726;28;20045;-68
2021/05/21 08:59:54;;;;;;;2.75;1.27;;;;;;;23.97;32.20;100075.94;7973613;28;20104;-67
2021/05/21 09:03:46;;;;;;;4.93;1.52;;;;;;;23.49;32.28;100070.78;7975433;28;20068;-67
2021/05/21 09:07:41;;;;;;;6.65;1.92;;;;;;;22.91;31.51;100083.75;7967182;28;20884;-67
2021/05/21 09:11:35;;;;;;;7.75;1.70;;;;;;;22.38;31.69;100084.50;7975162;28;20037;-66
2021/05/21 09:15:27;;;;;;;7.30;1.58;;;;;;;21.86;31.92;100083.13;7970705;28;20428;-68
2021/05/21 09:19:22;;;;;;;5.05;1.63;;;;;;;21.37;31.87;100069.72;7973298;28;20026;-68
2021/05/21 09:23:17;;;;;;;4.63;1.70;;;;;;;20.92;31.91;100080.69;7972945;28;20421;-69
2021/05/21 09:27:09;;;;;;;4.20;1.73;;;;;;;20.44;31.98;100080.22;7972570;28;20041;-66
2021/05/21 09:31:07;;;;;;;4.22;1.52;;;;;;;20.07;31.83;100086.47;7975760;28;20041;-67
2021/05/21 09:35:11;;;;;;;;;;;;;;;19.75;33.29;100078.75;7968855;28;20087;-66
2021/05/21 09:39:06;;;;;;;5.72;1.38;;;;;;;19.71;32.73;100072.94;7976552;28;19921;-69
2021/05/21 09:43:04;;;;;;;7.28;1.70;;;;;;;19.59;32.96;100086.88;7973583;28;20041;-67
2021/05/21 09:46:55;;;;;;;5.35;1.90;;;;;;;19.46;32.44;100090.13;7974804;28;20801;-68
2021/05/21 09:50:50;;;;;;;10.27;1.45;;;;;;;19.30;32.95;100084.91;7969724;28;20120;-68
2021/05/21 09:54:48;;;;;;;5.68;1.50;;;;;;;19.11;32.63;100082.66;7970866;28;20550;-68
2021/05/21 09:58:42;;;;;;;6.25;1.70;;;;;;;18.95;32.61;100082.75;7976846;28;20443;-67
2021/05/21 10:02:33;;;;;;;9.02;1.65;;;;;;;18.80;32.53;100082.66;7971055;28;20091;-66
2021/05/21 10:06:25;;;;;;;3.67;1.48;;;;;;;18.70;32.63;100084.69;7970001;28;20056;-66
2021/05/21 10:10:16;;;;;;;4.07;1.40;;;;;;;18.58;32.74;100089.56;7975490;28;20052;-66
2021/05/21 10:14:07;;;;;;;6.95;1.92;;;;;;;18.48;32.53;100101.41;7972462;28;20045;-66
2021/05/21 10:17:59;;;;;;;4.05;1.33;;;;;;;18.40;32.47;100086.25;7973027;28;20136;-67
2021/05/21 10:21:50;;;;;;;7.85;1.40;;;;;;;18.42;32.80;100087.75;7973633;28;20151;-68
2021/05/21 10:25:41;;;;;;;8.02;1.65;;;;;;;18.43;32.88;100096.59;7972749;28;20044;-68
2021/05/21 10:29:35;;;;;;;7.38;1.42;;;;;;;18.41;32.75;100077.28;7970812;28;20040;-68
2021/05/21 10:33:32;;;;;;;4.80;1.50;;;;;;;18.44;33.00;100084.94;7970468;28;20520;-67
2021/05/21 10:37:41;;;;;;;3.83;1.73;;;;;;;18.44;32.22;100083.13;7967341;28;20087;-68
2021/05/21 10:41:56;;;;;;;8.32;1.60;;;;;;;18.32;32.79;100084.44;7973987;28;20055;-66
2021/05/21 10:45:54;;;;;;;12.02;1.80;;;;;;;18.30;32.86;100069.69;7970468;28;20050;-66
2021/05/21 10:49:49;;;;;;;6.82;1.65;;;;;;;18.28;33.09;100067.19;7964374;28;20049;-66
2021/05/21 10:53:41;;;;;;;2.35;1.08;;;;;;;18.29;32.67;100068.03;7967180;28;20077;-66
2021/05/21 10:57:32;;;;;;;5.10;1.38;;;;;;;18.26;32.96;100074.53;7973786;28;20041;-66
2021/05/21 11:01:26;;;;;;;3.85;1.35;;;;;;;18.28;32.87;100063.69;7969737;28;20039;-66
2021/05/21 11:05:30;;;;;;;4.47;1.70;;;;;;;18.29;32.82;100060.88;7965001;28;20036;-66
2021/05/21 11:09:28;;;;;;;5.55;1.50;;;;;;;18.25;32.65;100054.25;7972308;28;20025;-67
2021/05/21 11:13:21;;;;;;;6.18;1.50;;;;;;;18.23;32.72;100048.25;7967953;28;20029;-69
2021/05/21 11:17:23;;;;;;;5.55;1.80;;;;;;;18.23;32.78;100032.31;7972983;28;20128;-69
2021/05/21 11:21:20;;;;;;;2.33;1.15;;;;;;;18.21;32.79;100033.47;7971970;28;20037;-67
2021/05/21 11:25:16;;;;;;;3.63;1.40;;;;;;;18.18;32.39;100028.53;7967729;28;20073;-67
2021/05/21 11:29:07;;;;;;;5.47;1.52;;;;;;;18.18;32.76;100017.88;7969964;28;20049;-67
2021/05/21 11:33:00;;;;;;;7.20;1.50;;;;;;;18.14;32.67;100025.38;7968985;28;20052;-67
2021/05/21 11:36:55;;;;;;;6.10;1.58;;;;;;;18.11;32.51;100015.06;7966846;28;20024;-67
2021/05/21 11:40:45;;;;;;;3.92;1.45;;;;;;;18.09;32.49;100032.19;7970872;28;20497;-67
2021/05/21 11:44:36;;;;;;;3.42;1.23;;;;;;;18.02;32.61;100027.53;7973090;28;20034;-67
2021/05/21 11:48:32;;;;;;;4.47;1.52;;;;;;;18.04;32.45;99998.16;7976452;28;20048;-67
2021/05/21 11:52:23;;;;;;;8.15;1.52;;;;;;;18.04;32.53;100022.06;7975861;28;20029;-67
2021/05/21 11:56:24;;;;;;;3.88;0.93;;;;;;;18.04;32.74;100015.91;7975373;28;20190;-67
2021/05/21 12:00:16;;;;;;;5.32;1.63;;;;;;;17.99;32.71;100019.91;7977153;28;20040;-69
2021/05/21 12:04:08;;;;;;;6.07;1.42;;;;;;;18.12;32.91;100005.25;7973493;28;20488;-69
2021/05/21 12:08:00;;;;;;;4.50;1.60;;;;;;;18.16;32.83;99996.78;7975748;28;20039;-68
2021/05/21 12:11:54;;;;;;;10.52;1.58;;;;;;;18.14;32.80;99985.50;7972917;28;20033;-69
2021/05/21 12:15:45;;;;;;;4.40;1.33;;;;;;;18.12;32.48;99986.66;7975617;28;20055;-68
2021/05/21 12:19:41;;;;;;;3.55;1.38;;;;;;;18.08;32.17;99996.81;7973805;28;20033;-69
2021/05/21 12:23:41;;;;;;;5.38;1.45;;;;;;;18.06;32.10;99990.84;7972300;28;20120;-68
2021/05/21 12:27:32;;;;;;;3.05;1.48;;;;;;;18.08;32.32;99990.66;7976974;28;20477;-68
2021/05/21 12:31:31;;;;;;;2.95;1.17;;;;;;;18.10;32.57;99981.53;7973427;28;20088;-68
2021/05/21 12:35:35;;;;;;;8.85;2.00;;;;;;;18.11;32.31;99982.38;7972823;28;20029;-69
2021/05/21 12:39:41;;;;;;;14.75;2.47;;;;;;;18.11;32.26;99963.75;7968854;28;20049;-68
2021/05/21 12:43:32;;;;;;;4.90;1.50;;;;;;;18.15;32.46;99963.22;7993931;28;20044;-69
2021/05/21 12:47:24;;;;;;;6.82;1.55;;;;;;;18.21;32.29;99954.56;7976288;28;20057;-66
2021/05/21 12:51:25;;;;;;;3.33;1.52;;;;;;;18.26;32.01;99964.69;7990303;28;20049;-67
2021/05/21 12:55:16;;;;;;;4.18;1.40;;;;;;;18.28;32.20;99954.69;7974507;28;20072;-68
2021/05/21 12:59:11;;;;;;;8.48;1.60;;;;;;;18.25;32.01;99965.69;7972260;28;20041;-69
2021/05/21 13:03:02;;;;;;;7.13;1.83;;;;;;;18.25;31.81;99961.19;7974083;28;20414;-69
2021/05/21 13:06:57;;;;;;;9.25;2.35;;;;;;;18.27;31.77;99959.19;7968927;28;20056;-69
2021/05/21 13:10:48;;;;;;;4.75;1.40;;;;;;;18.28;31.96;99939.56;7973031;28;20428;-69
2021/05/21 13:14:44;;;;;;;6.53;1.40;;;;;;;18.22;31.81;99958.91;7973874;28;20486;-69
2021/05/21 13:18:38;;;;;;;15.25;2.15;;;;;;;18.21;31.67;99961.72;7974943;28;20029;-69
2021/05/21 13:22:30;;;;;;;5.22;1.00;;;;;;;18.20;31.92;99958.22;7971900;28;20045;-69
2021/05/21 13:26:21;;;;;;;5.45;1.40;;;;;;;18.26;31.92;99946.09;7974698;28;20041;-69
2021/05/21 13:30:12;;;;;;;4.00;1.10;;;;;;;18.31;31.88;99944.56;7971753;28;20052;-67
2021/05/21 13:34:03;;;;;;;5.53;1.73;;;;;;;18.24;31.52;99938.28;7971386;28;20068;-66
2021/05/21 13:37:58;;;;;;;4.78;1.98;;;;;;;18.21;31.38;99941.28;7971994;28;20045;-66
2021/05/21 13:41:49;;;;;;;3.63;1.40;;;;;;;18.12;31.68;99942.31;7973780;28;20021;-66
2021/05/21 13:45:40;;;;;;;6.53;1.45;;;;;;;18.11;31.94;99942.50;7973020;28;20041;-67
2021/05/21 13:49:31;;;;;;;3.78;0.95;;;;;;;18.11;31.90;99937.19;7973567;28;20033;-67
2021/05/21 13:53:24;;;;;;;7.18;1.45;;;;;;;18.08;31.53;99945.47;7972870;28;20095;-67
2021/05/21 13:57:15;;;;;;;4.53;1.33;;;;;;;18.02;31.56;99948.84;7970359;28;20116;-67
2021/05/21 14:01:05;;;;;;;5.78;1.13;;;;;;;17.98;31.62;99935.88;7972037;28;20072;-67
2021/05/21 14:04:56;;;;;;;2.28;1.15;;;;;;;17.96;31.73;99935.22;7970025;28;20048;-66
2021/05/21 14:08:46;;;;;;;11.05;1.90;;;;;;;17.90;31.72;99938.56;7974741;28;20045;-66
2021/05/21 14:12:37;;;;;;;5.55;1.30;;;;;;;17.93;31.84;99924.13;7971070;28;20528;-66
2021/05/21 14:16:28;;;;;;;5.10;1.27;;;;;;;17.92;31.69;99920.63;7955572;28;20156;-66
2021/05/21 14:20:18;;;;;;;2.67;1.00;;;;;;;17.89;31.49;99917.50;7971278;28;20037;-66
2021/05/21 14:24:11;;;;;;;3.35;1.33;;;;;;;17.89;31.33;99917.50;7969047;28;21696;-67
2021/05/21 14:28:03;;;;;;;3.33;1.33;;;;;;;17.85;31.64;99911.69;7978256;28;20117;-67
2021/05/21 14:31:54;;;;;;;4.05;1.20;;;;;;;17.86;31.37;99908.03;7971646;28;20045;-69
2021/05/21 14:35:44;;;;;;;5.57;1.30;;;;;;;17.79;31.41;99904.41;7992682;28;20105;-69
2021/05/21 14:39:35;;;;;;;4.28;1.25;;;;;;;17.76;31.32;99887.97;7975331;28;20068;-67
2021/05/21 14:43:27;;;;;;;4.93;1.17;;;;;;;17.89;31.27;99902.38;7970170;28;20066;-66
2021/05/21 14:47:17;;;;;;;5.95;1.30;;;;;;;17.92;31.33;99903.84;7971916;28;20052;-67
2021/05/21 14:51:08;;;;;;;9.60;1.60;;;;;;;17.88;31.43;99887.44;7972052;28;20037;-67
2021/05/21 14:54:59;;;;;;;13.20;2.03;;;;;;;17.82;31.39;99879.31;7968861;28;20029;-66
2021/05/21 14:58:54;;;;;;;3.35;1.42;;;;;;;17.83;31.34;99879.16;7970908;28;20063;-67
2021/05/21 15:02:46;;;;;;;4.82;1.20;;;;;;;17.80;31.31;99886.63;7972678;28;20053;-67
2021/05/21 15:06:37;;;;;;;7.07;1.33;;;;;;;17.76;31.23;99891.47;7970351;28;20120;-67
2021/05/21 15:10:30;;;;;;;3.70;1.52;;;;;;;17.73;31.44;99880.38;7974959;28;20849;-67
2021/05/21 15:14:25;;;;;;;3.35;1.13;;;;;;;17.68;31.17;99872.88;7969363;28;20536;-67
2021/05/21 15:26:26;;;;;;;3.70;1.08;;;;;;;17.67;30.98;99865.91;7977894;28;20044;-67
2021/05/21 15:30:17;;;;;;;1.58;0.98;;;;;;;17.62;31.06;99854.94;7981438;28;20052;-67
2021/05/21 15:34:09;;;;;;;2.17;1.08;;;;;;;17.63;31.11;99848.66;7977342;28;20120;-66
2021/05/21 15:38:00;;;;;;;4.00;1.17;;;;;;;17.66;31.09;99842.16;7974459;28;20044;-67
2021/05/21 15:42:06;;;;;;;4.05;1.02;;;;;;;17.70;31.20;99849.66;7980491;28;20037;-66
2021/05/21 16:01:32;;;;;;;4.13;1.08;;;;;;;16.77;33.15;99895.34;7973422;28;20823;-66
2021/05/21 16:05:23;;;;;;;2.85;1.27;;;;;;;16.64;33.72;99894.00;7975336;28;20045;-67
2021/05/21 16:09:14;;;;;;;2.90;1.40;;;;;;;16.65;34.15;99876.28;7971717;28;20056;-66
2021/05/21 16:13:05;;;;;;;1.65;1.02;;;;;;;16.66;34.27;99863.84;7974925;28;20037;-66
2021/05/21 16:16:55;;;;;;;2.28;1.08;;;;;;;16.65;34.37;99857.72;7976081;28;20103;-66
2021/05/21 16:20:47;;;;;;;2.85;1.33;;;;;;;16.57;34.65;99841.81;7971833;28;20062;-66
2021/05/21 16:24:40;;;;;;;6.38;1.50;;;;;;;16.53;34.31;99843.94;7967880;28;20037;-67
2021/05/21 16:28:31;;;;;;;6.93;1.60;;;;;;;16.50;34.32;99838.97;7973313;28;20041;-67
2021/05/21 16:32:26;;;;;;;13.75;2.20;;;;;;;16.47;34.36;99822.56;7978407;28;20047;-67
2021/05/21 16:36:16;;;;;;;11.13;2.20;;;;;;;16.43;34.54;99819.41;7968192;28;20569;-67
2021/05/21 16:40:09;;;;;;;20.02;6.50;;;;;;;16.41;34.49;99815.28;7975900;28;20044;-67
2021/05/21 16:44:00;;;;;;;12.23;3.35;;;;;;;16.37;34.34;99806.81;7975060;28;20040;-67
2021/05/21 16:47:51;;;;;;;5.28;1.55;;;;;;;16.33;34.36;99796.69;7961944;28;20070;-67
2021/05/21 16:51:41;;;;;;;5.38;1.80;;;;;;;16.28;34.35;99801.69;7971904;28;20041;-69
2021/05/21 16:55:32;;;;;;;2.75;0.95;;;;;;;16.22;34.21;99795.19;7977075;28;20159;-67
2021/05/21 16:59:23;;;;;;;3.28;1.10;;;;;;;16.21;34.65;99792.72;7975367;28;20044;-67
2021/05/21 17:03:13;;;;;;;4.57;1.42;;;;;;;16.17;34.37;99800.16;7972912;28;20042;-67
2021/05/21 17:07:05;;;;;;;2.05;0.77;;;;;;;16.10;34.23;99789.38;7969792;28;20032;-76
2021/05/21 17:10:56;;;;;;;3.50;1.10;;;;;;;16.08;34.54;99791.34;7969827;28;20122;-73
2021/05/21 17:14:58;;;;;;;3.78;1.02;;;;;;;16.07;34.84;99788.88;7973168;28;20041;-73
2021/05/21 18:06:40;;;;;;;2.53;1.02;;;;;;;15.62;34.89;99779.44;7972196;28;20037;-69
2021/05/21 18:22:38;;;;;;;2.03;0.82;;;;;;;15.24;35.69;99762.25;7973657;28;20689;-72
2021/05/21 19:03:00;;;;;;;2.97;1.13;;;;;;;14.83;36.16;99777.00;7979629;28;20048;-73
2021/05/21 19:15:33;;;;;;;8.98;1.02;;;;;;;14.56;36.34;99774.50;7977619;28;20045;-72
2021/05/21 19:19:25;;;;;;;3.75;1.70;;;;;;;14.40;36.41;99765.59;7990545;28;21261;-73
2021/05/21 19:23:17;;;;;;;4.47;1.10;;;;;;;14.36;36.33;99775.63;7983804;28;20033;-73
2021/05/21 19:27:08;;;;;;;3.42;0.90;;;;;;;14.27;36.79;99774.72;7979073;28;20040;-73
2021/05/21 19:43:20;;;;;;;1.75;0.80;;;;;;;13.88;36.84;99795.28;7974225;28;20049;-73
2021/05/21 20:15:45;;;;;;;3.10;1.40;;;;;;;13.35;37.78;99779.28;7940362;28;20053;-71
2021/05/21 20:19:36;;;;;;;4.18;1.00;;;;;;;13.29;38.00;99777.25;7972104;28;20064;-73
2021/05/21 20:23:26;;;;;;;2.78;1.02;;;;;;;13.25;38.08;99782.94;7974571;28;20065;-73
2021/05/21 20:27:21;;;;;;;2.47;0.88;;;;;;;13.18;38.20;99766.06;7975301;28;20075;-73
2021/05/21 20:31:28;;;;;;;2.30;1.10;;;;;;;13.11;38.37;99752.59;7979108;28;20068;-73
2021/05/21 20:43:48;;;;;;;4.18;1.73;;;;;;;12.97;38.59;99766.25;7974055;28;20355;-72
2021/05/21 21:08:09;;;;;;;1.75;1.00;;;;;;;12.59;39.45;99759.25;7969701;28;20041;-69
2021/05/21 21:16:10;;;;;;;2.92;0.90;;;;;;;12.48;39.20;99762.00;7973288;28;20041;-70
2021/05/21 21:20:19;;;;;;;3.20;1.33;;;;;;;12.41;39.19;99753.00;7974653;28;20648;-69
2021/05/21 21:24:31;;;;;;;3.80;1.38;;;;;;;12.34;39.34;99755.38;7972095;28;20041;-70